Terminal Aerodrome Forecast
Issued by NWS

Home | Current Version | Previous Version | Text Only | Print | Product List | Glossary On
Versions: 1 2 3 4 5 6 7 8 9 10 11 12 13
000
FTUS46 KSEW 172300
TAFCLM
TAF
KCLM 172330Z 1800/1824 27006KT P6SM -SHRA SCT070 BKN100 OVC200
     FM180900 29004KT P6SM -SHRA BKN060 OVC100
     FM181500 28005KT P6SM BKN030=

USA.gov is the U.S. government's official web portal to all federal, state and local government web resources and services.